sensor_id;sensor_type;location;lat;lon;timestamp;temperature;humidity
70154;DHT22;57519;51.494;-2.626;2023-03-13T00:01:56;12.51;90.98
70154;DHT22;57519;51.494;-2.626;2023-03-13T00:04:21;12.51;90.91
70154;DHT22;57519;51.494;-2.626;2023-03-13T00:06:46;12.56;90.62
70154;DHT22;57519;51.494;-2.626;2023-03-13T00:09:17;12.56;90.68
70154;DHT22;57519;51.494;-2.626;2023-03-13T00:11:43;12.65;90.14
70154;DHT22;57519;51.494;-2.626;2023-03-13T00:14:10;12.66;90.44
70154;DHT22;57519;51.494;-2.626;2023-03-13T00:16:35;12.58;90.91
70154;DHT22;57519;51.494;-2.626;2023-03-13T00:19:02;12.59;91.21
70154;DHT22;57519;51.494;-2.626;2023-03-13T00:21:28;12.53;91.57
70154;DHT22;57519;51.494;-2.626;2023-03-13T00:23:54;12.48;91.95
70154;DHT22;57519;51.494;-2.626;2023-03-13T00:26:22;12.41;92.11
70154;DHT22;57519;51.494;-2.626;2023-03-13T00:28:48;12.44;92.21
70154;DHT22;57519;51.494;-2.626;2023-03-13T00:31:27;12.45;92.13
70154;DHT22;57519;51.494;-2.626;2023-03-13T00:33:56;12.40;92.47
70154;DHT22;57519;51.494;-2.626;2023-03-13T00:36:31;12.35;92.56
70154;DHT22;57519;51.494;-2.626;2023-03-13T00:38:57;12.35;92.64
70154;DHT22;57519;51.494;-2.626;2023-03-13T00:41:30;12.37;92.54
70154;DHT22;57519;51.494;-2.626;2023-03-13T00:43:56;12.41;92.51
70154;DHT22;57519;51.494;-2.626;2023-03-13T00:46:24;12.38;92.28
70154;DHT22;57519;51.494;-2.626;2023-03-13T00:48:50;12.38;92.16
70154;DHT22;57519;51.494;-2.626;2023-03-13T00:51:17;12.38;92.30
70154;DHT22;57519;51.494;-2.626;2023-03-13T00:53:43;12.40;92.12
70154;DHT22;57519;51.494;-2.626;2023-03-13T00:56:11;12.41;91.92
70154;DHT22;57519;51.494;-2.626;2023-03-13T00:58:39;12.44;91.71
70154;DHT22;57519;51.494;-2.626;2023-03-13T01:01:16;12.46;91.63
70154;DHT22;57519;51.494;-2.626;2023-03-13T01:03:45;12.41;92.28
70154;DHT22;57519;51.494;-2.626;2023-03-13T01:06:13;12.41;92.32
70154;DHT22;57519;51.494;-2.626;2023-03-13T01:08:39;12.35;92.31
70154;DHT22;57519;51.494;-2.626;2023-03-13T01:11:05;12.41;92.30
70154;DHT22;57519;51.494;-2.626;2023-03-13T01:13:32;12.42;92.09
70154;DHT22;57519;51.494;-2.626;2023-03-13T01:16:06;12.49;91.60
70154;DHT22;57519;51.494;-2.626;2023-03-13T01:18:36;12.46;91.72
70154;DHT22;57519;51.494;-2.626;2023-03-13T01:21:02;12.52;91.50
70154;DHT22;57519;51.494;-2.626;2023-03-13T01:23:28;12.53;91.35
70154;DHT22;57519;51.494;-2.626;2023-03-13T01:25:55;12.62;91.07
70154;DHT22;57519;51.494;-2.626;2023-03-13T01:28:21;12.61;90.83
70154;DHT22;57519;51.494;-2.626;2023-03-13T01:30:47;12.59;90.89
70154;DHT22;57519;51.494;-2.626;2023-03-13T01:33:13;12.59;90.90
70154;DHT22;57519;51.494;-2.626;2023-03-13T01:35:38;12.58;90.87
70154;DHT22;57519;51.494;-2.626;2023-03-13T01:38:04;12.62;90.51
70154;DHT22;57519;51.494;-2.626;2023-03-13T01:40:29;12.65;90.77
70154;DHT22;57519;51.494;-2.626;2023-03-13T01:42:59;12.62;90.58
70154;DHT22;57519;51.494;-2.626;2023-03-13T01:48:28;12.65;90.46
70154;DHT22;57519;51.494;-2.626;2023-03-13T01:50:59;12.62;90.45
70154;DHT22;57519;51.494;-2.626;2023-03-13T01:53:27;12.65;90.27
70154;DHT22;57519;51.494;-2.626;2023-03-13T01:55:54;12.71;90.08
70154;DHT22;57519;51.494;-2.626;2023-03-13T01:58:20;12.71;89.94
70154;DHT22;57519;51.494;-2.626;2023-03-13T02:00:46;12.73;89.94
70154;DHT22;57519;51.494;-2.626;2023-03-13T02:03:16;12.71;89.88
70154;DHT22;57519;51.494;-2.626;2023-03-13T02:05:45;12.73;89.67
70154;DHT22;57519;51.494;-2.626;2023-03-13T02:08:20;12.79;89.60
70154;DHT22;57519;51.494;-2.626;2023-03-13T02:10:52;12.80;89.66
70154;DHT22;57519;51.494;-2.626;2023-03-13T02:13:19;12.78;89.65
70154;DHT22;57519;51.494;-2.626;2023-03-13T02:15:46;12.76;89.82
70154;DHT22;57519;51.494;-2.626;2023-03-13T02:18:12;12.69;90.10
70154;DHT22;57519;51.494;-2.626;2023-03-13T02:20:39;12.65;90.51
70154;DHT22;57519;51.494;-2.626;2023-03-13T02:25:42;12.63;90.58
70154;DHT22;57519;51.494;-2.626;2023-03-13T02:28:24;12.55;90.87
70154;DHT22;57519;51.494;-2.626;2023-03-13T02:30:54;12.52;91.20
70154;DHT22;57519;51.494;-2.626;2023-03-13T02:33:20;12.53;91.38
70154;DHT22;57519;51.494;-2.626;2023-03-13T02:35:47;12.56;91.31
70154;DHT22;57519;51.494;-2.626;2023-03-13T02:38:18;12.48;91.31
70154;DHT22;57519;51.494;-2.626;2023-03-13T02:40:46;12.46;91.46
70154;DHT22;57519;51.494;-2.626;2023-03-13T02:43:34;12.42;91.53
70154;DHT22;57519;51.494;-2.626;2023-03-13T02:46:12;12.46;91.33
70154;DHT22;57519;51.494;-2.626;2023-03-13T02:48:43;12.44;91.32
70154;DHT22;57519;51.494;-2.626;2023-03-13T02:53:44;12.41;90.87
70154;DHT22;57519;51.494;-2.626;2023-03-13T02:56:12;12.37;90.70
70154;DHT22;57519;51.494;-2.626;2023-03-13T02:58:39;12.40;90.62
70154;DHT22;57519;51.494;-2.626;2023-03-13T03:01:05;12.34;90.53
70154;DHT22;57519;51.494;-2.626;2023-03-13T03:03:34;12.42;90.04
70154;DHT22;57519;51.494;-2.626;2023-03-13T03:06:02;12.51;89.80
70154;DHT22;57519;51.494;-2.626;2023-03-13T03:08:27;12.53;89.81
70154;DHT22;57519;51.494;-2.626;2023-03-13T03:10:53;12.46;89.84
70154;DHT22;57519;51.494;-2.626;2023-03-13T03:13:19;12.55;89.46
70154;DHT22;57519;51.494;-2.626;2023-03-13T03:15:44;12.49;89.14
70154;DHT22;57519;51.494;-2.626;2023-03-13T03:18:10;12.51;89.02
70154;DHT22;57519;51.494;-2.626;2023-03-13T03:20:35;12.51;88.70
70154;DHT22;57519;51.494;-2.626;2023-03-13T03:23:01;12.55;88.57
70154;DHT22;57519;51.494;-2.626;2023-03-13T03:25:26;12.56;87.82
70154;DHT22;57519;51.494;-2.626;2023-03-13T03:27:52;12.49;87.46
70154;DHT22;57519;51.494;-2.626;2023-03-13T03:30:17;12.52;86.63
70154;DHT22;57519;51.494;-2.626;2023-03-13T03:32:43;12.61;85.91
70154;DHT22;57519;51.494;-2.626;2023-03-13T03:35:09;12.71;85.13
70154;DHT22;57519;51.494;-2.626;2023-03-13T03:37:34;12.72;85.50
70154;DHT22;57519;51.494;-2.626;2023-03-13T03:40:00;12.73;85.90
70154;DHT22;57519;51.494;-2.626;2023-03-13T03:45:01;12.49;88.26
70154;DHT22;57519;51.494;-2.626;2023-03-13T03:47:27;12.44;88.15
70154;DHT22;57519;51.494;-2.626;2023-03-13T03:49:52;12.38;88.45
70154;DHT22;57519;51.494;-2.626;2023-03-13T03:52:18;12.38;88.89
70154;DHT22;57519;51.494;-2.626;2023-03-13T03:54:44;12.28;89.78
70154;DHT22;57519;51.494;-2.626;2023-03-13T03:57:09;12.14;90.61
70154;DHT22;57519;51.494;-2.626;2023-03-13T03:59:35;12.00;91.46
70154;DHT22;57519;51.494;-2.626;2023-03-13T04:02:01;11.93;91.71
70154;DHT22;57519;51.494;-2.626;2023-03-13T04:04:26;11.91;92.07
70154;DHT22;57519;51.494;-2.626;2023-03-13T04:06:52;11.89;92.06
70154;DHT22;57519;51.494;-2.626;2023-03-13T04:09:21;11.86;92.01
70154;DHT22;57519;51.494;-2.626;2023-03-13T04:11:57;11.87;91.61
70154;DHT22;57519;51.494;-2.626;2023-03-13T04:14:26;11.93;91.19
70154;DHT22;57519;51.494;-2.626;2023-03-13T04:16:52;11.96;90.80
70154;DHT22;57519;51.494;-2.626;2023-03-13T04:19:20;11.98;89.89
70154;DHT22;57519;51.494;-2.626;2023-03-13T04:21:46;12.04;89.59
70154;DHT22;57519;51.494;-2.626;2023-03-13T04:24:13;12.03;89.24
70154;DHT22;57519;51.494;-2.626;2023-03-13T04:26:39;12.04;89.20
70154;DHT22;57519;51.494;-2.626;2023-03-13T04:29:05;12.14;87.40
70154;DHT22;57519;51.494;-2.626;2023-03-13T04:31:31;12.16;87.44
70154;DHT22;57519;51.494;-2.626;2023-03-13T04:33:58;12.10;87.33
70154;DHT22;57519;51.494;-2.626;2023-03-13T04:36:23;12.10;86.64
70154;DHT22;57519;51.494;-2.626;2023-03-13T04:41:16;12.00;85.89
70154;DHT22;57519;51.494;-2.626;2023-03-13T04:43:42;12.04;84.85
70154;DHT22;57519;51.494;-2.626;2023-03-13T04:46:07;12.03;85.04
70154;DHT22;57519;51.494;-2.626;2023-03-13T04:48:32;12.03;84.72
70154;DHT22;57519;51.494;-2.626;2023-03-13T04:50:58;12.10;82.63
70154;DHT22;57519;51.494;-2.626;2023-03-13T04:53:24;12.18;82.97
70154;DHT22;57519;51.494;-2.626;2023-03-13T04:55:50;12.20;82.69
70154;DHT22;57519;51.494;-2.626;2023-03-13T04:58:15;12.24;82.09
70154;DHT22;57519;51.494;-2.626;2023-03-13T05:00:41;12.25;81.63
70154;DHT22;57519;51.494;-2.626;2023-03-13T05:03:07;12.14;82.25
70154;DHT22;57519;51.494;-2.626;2023-03-13T05:05:33;12.14;82.03
70154;DHT22;57519;51.494;-2.626;2023-03-13T05:07:59;12.14;81.19
70154;DHT22;57519;51.494;-2.626;2023-03-13T05:10:25;12.20;81.69
70154;DHT22;57519;51.494;-2.626;2023-03-13T05:12:51;12.17;81.38
70154;DHT22;57519;51.494;-2.626;2023-03-13T05:15:17;12.23;80.85
70154;DHT22;57519;51.494;-2.626;2023-03-13T05:17:42;12.17;81.26
70154;DHT22;57519;51.494;-2.626;2023-03-13T05:20:09;12.11;81.22
70154;DHT22;57519;51.494;-2.626;2023-03-13T05:22:37;12.10;81.31
70154;DHT22;57519;51.494;-2.626;2023-03-13T05:25:03;12.13;80.96
70154;DHT22;57519;51.494;-2.626;2023-03-13T05:27:32;12.14;81.05
70154;DHT22;57519;51.494;-2.626;2023-03-13T05:29:58;12.10;81.17
70154;DHT22;57519;51.494;-2.626;2023-03-13T05:32:23;12.11;80.82
70154;DHT22;57519;51.494;-2.626;2023-03-13T05:34:48;12.03;82.21
70154;DHT22;57519;51.494;-2.626;2023-03-13T05:37:14;11.94;83.34
70154;DHT22;57519;51.494;-2.626;2023-03-13T05:39:42;11.80;83.28
70154;DHT22;57519;51.494;-2.626;2023-03-13T05:42:07;11.73;84.38
70154;DHT22;57519;51.494;-2.626;2023-03-13T05:44:33;11.72;84.25
70154;DHT22;57519;51.494;-2.626;2023-03-13T05:46:59;11.69;84.30
70154;DHT22;57519;51.494;-2.626;2023-03-13T05:49:24;11.70;83.29
70154;DHT22;57519;51.494;-2.626;2023-03-13T05:51:50;11.77;82.49
70154;DHT22;57519;51.494;-2.626;2023-03-13T05:54:18;11.84;81.89
70154;DHT22;57519;51.494;-2.626;2023-03-13T05:56:44;11.86;82.89
70154;DHT22;57519;51.494;-2.626;2023-03-13T05:59:13;11.66;84.39
70154;DHT22;57519;51.494;-2.626;2023-03-13T06:01:38;11.52;85.52
70154;DHT22;57519;51.494;-2.626;2023-03-13T06:04:06;11.51;84.94
70154;DHT22;57519;51.494;-2.626;2023-03-13T06:06:34;11.46;84.42
70154;DHT22;57519;51.494;-2.626;2023-03-13T06:16:46;11.58;83.26
70154;DHT22;57519;51.494;-2.626;2023-03-13T06:19:11;11.56;83.56
70154;DHT22;57519;51.494;-2.626;2023-03-13T06:21:42;11.49;83.62
70154;DHT22;57519;51.494;-2.626;2023-03-13T06:24:08;11.40;85.00
70154;DHT22;57519;51.494;-2.626;2023-03-13T06:26:33;11.32;86.09
70154;DHT22;57519;51.494;-2.626;2023-03-13T06:28:59;11.21;85.69
70154;DHT22;57519;51.494;-2.626;2023-03-13T06:31:24;11.19;85.41
70154;DHT22;57519;51.494;-2.626;2023-03-13T06:33:57;11.28;84.35
70154;DHT22;57519;51.494;-2.626;2023-03-13T06:36:23;11.29;83.98
70154;DHT22;57519;51.494;-2.626;2023-03-13T06:38:49;11.39;83.95
70154;DHT22;57519;51.494;-2.626;2023-03-13T06:41:14;11.49;83.21
70154;DHT22;57519;51.494;-2.626;2023-03-13T06:43:40;11.58;82.93
70154;DHT22;57519;51.494;-2.626;2023-03-13T06:46:08;11.61;82.69
70154;DHT22;57519;51.494;-2.626;2023-03-13T06:48:39;11.62;83.03
70154;DHT22;57519;51.494;-2.626;2023-03-13T06:51:12;11.66;82.34
70154;DHT22;57519;51.494;-2.626;2023-03-13T06:53:38;11.70;82.57
70154;DHT22;57519;51.494;-2.626;2023-03-13T06:56:05;11.73;82.45
70154;DHT22;57519;51.494;-2.626;2023-03-13T07:02:29;11.69;82.93
70154;DHT22;57519;51.494;-2.626;2023-03-13T07:04:55;11.66;82.95
70154;DHT22;57519;51.494;-2.626;2023-03-13T07:07:20;11.67;83.31
70154;DHT22;57519;51.494;-2.626;2023-03-13T07:09:46;11.67;83.72
70154;DHT22;57519;51.494;-2.626;2023-03-13T07:12:11;11.66;83.89
70154;DHT22;57519;51.494;-2.626;2023-03-13T07:14:39;11.65;83.70
70154;DHT22;57519;51.494;-2.626;2023-03-13T07:17:10;11.67;83.52
70154;DHT22;57519;51.494;-2.626;2023-03-13T07:26:21;11.65;83.81
70154;DHT22;57519;51.494;-2.626;2023-03-13T07:28:47;11.67;83.98
70154;DHT22;57519;51.494;-2.626;2023-03-13T07:31:17;11.67;83.19
70154;DHT22;57519;51.494;-2.626;2023-03-13T07:33:44;11.70;83.14
70154;DHT22;57519;51.494;-2.626;2023-03-13T07:36:11;11.82;82.30
70154;DHT22;57519;51.494;-2.626;2023-03-13T07:38:37;11.84;82.39
70154;DHT22;57519;51.494;-2.626;2023-03-13T07:41:03;11.86;82.26
70154;DHT22;57519;51.494;-2.626;2023-03-13T07:43:29;11.89;81.73
70154;DHT22;57519;51.494;-2.626;2023-03-13T07:46:04;11.91;81.78
70154;DHT22;57519;51.494;-2.626;2023-03-13T07:48:33;12.00;81.12
70154;DHT22;57519;51.494;-2.626;2023-03-13T07:50:59;12.04;80.91
70154;DHT22;57519;51.494;-2.626;2023-03-13T07:53:25;12.10;80.79
70154;DHT22;57519;51.494;-2.626;2023-03-13T07:56:07;12.18;80.11
70154;DHT22;57519;51.494;-2.626;2023-03-13T07:58:35;12.20;80.36
70154;DHT22;57519;51.494;-2.626;2023-03-13T08:01:11;12.28;79.89
70154;DHT22;57519;51.494;-2.626;2023-03-13T08:03:37;12.35;79.93
70154;DHT22;57519;51.494;-2.626;2023-03-13T08:06:09;12.32;79.36
70154;DHT22;57519;51.494;-2.626;2023-03-13T08:08:35;12.32;80.01
70154;DHT22;57519;51.494;-2.626;2023-03-13T08:11:38;12.35;79.60
70154;DHT22;57519;51.494;-2.626;2023-03-13T08:14:04;12.42;79.47
70154;DHT22;57519;51.494;-2.626;2023-03-13T08:16:32;12.46;79.00
70154;DHT22;57519;51.494;-2.626;2023-03-13T08:18:59;12.49;78.94
70154;DHT22;57519;51.494;-2.626;2023-03-13T08:21:27;12.46;79.57
70154;DHT22;57519;51.494;-2.626;2023-03-13T08:23:58;12.51;79.24
70154;DHT22;57519;51.494;-2.626;2023-03-13T08:26:27;12.49;79.49
70154;DHT22;57519;51.494;-2.626;2023-03-13T08:29:06;12.45;79.48
70154;DHT22;57519;51.494;-2.626;2023-03-13T08:31:34;12.48;79.35
70154;DHT22;57519;51.494;-2.626;2023-03-13T08:34:00;12.48;79.57
70154;DHT22;57519;51.494;-2.626;2023-03-13T08:36:31;12.49;79.96
70154;DHT22;57519;51.494;-2.626;2023-03-13T08:38:59;12.40;80.12
70154;DHT22;57519;51.494;-2.626;2023-03-13T08:41:27;12.37;80.39
70154;DHT22;57519;51.494;-2.626;2023-03-13T08:43:54;12.42;80.41
70154;DHT22;57519;51.494;-2.626;2023-03-13T08:46:20;12.56;80.29
70154;DHT22;57519;51.494;-2.626;2023-03-13T08:48:50;12.53;80.04
70154;DHT22;57519;51.494;-2.626;2023-03-13T08:51:17;12.63;79.44
70154;DHT22;57519;51.494;-2.626;2023-03-13T08:53:46;12.75;79.44
70154;DHT22;57519;51.494;-2.626;2023-03-13T08:56:14;12.80;78.47
70154;DHT22;57519;51.494;-2.626;2023-03-13T08:58:39;12.82;78.89
70154;DHT22;57519;51.494;-2.626;2023-03-13T09:01:10;12.72;77.71
70154;DHT22;57519;51.494;-2.626;2023-03-13T09:03:37;12.71;78.03
70154;DHT22;57519;51.494;-2.626;2023-03-13T09:06:03;12.73;77.92
70154;DHT22;57519;51.494;-2.626;2023-03-13T09:08:29;12.63;79.17
70154;DHT22;57519;51.494;-2.626;2023-03-13T09:11:05;12.62;79.41
70154;DHT22;57519;51.494;-2.626;2023-03-13T09:13:33;12.55;79.44
70154;DHT22;57519;51.494;-2.626;2023-03-13T09:16:04;12.46;80.27
70154;DHT22;57519;51.494;-2.626;2023-03-13T09:18:31;12.46;82.29
70154;DHT22;57519;51.494;-2.626;2023-03-13T09:20:56;12.28;83.21
70154;DHT22;57519;51.494;-2.626;2023-03-13T09:23:23;12.25;83.32
70154;DHT22;57519;51.494;-2.626;2023-03-13T09:25:51;12.32;83.44
70154;DHT22;57519;51.494;-2.626;2023-03-13T09:28:17;12.34;83.12
70154;DHT22;57519;51.494;-2.626;2023-03-13T09:30:42;12.30;82.62
70154;DHT22;57519;51.494;-2.626;2023-03-13T09:33:08;12.28;82.10
70154;DHT22;57519;51.494;-2.626;2023-03-13T09:35:33;12.32;82.37
70154;DHT22;57519;51.494;-2.626;2023-03-13T09:37:59;12.42;81.16
70154;DHT22;57519;51.494;-2.626;2023-03-13T09:40:25;12.59;81.28
70154;DHT22;57519;51.494;-2.626;2023-03-13T09:42:59;12.56;79.08
70154;DHT22;57519;51.494;-2.626;2023-03-13T09:48:11;13.02;77.93
70154;DHT22;57519;51.494;-2.626;2023-03-13T09:50:43;13.26;76.59
70154;DHT22;57519;51.494;-2.626;2023-03-13T09:53:26;13.38;76.57
70154;DHT22;57519;51.494;-2.626;2023-03-13T09:55:55;13.36;75.65
70154;DHT22;57519;51.494;-2.626;2023-03-13T09:58:24;13.41;75.57
70154;DHT22;57519;51.494;-2.626;2023-03-13T10:01:00;13.33;74.71
70154;DHT22;57519;51.494;-2.626;2023-03-13T10:03:30;13.51;74.33
70154;DHT22;57519;51.494;-2.626;2023-03-13T10:06:01;13.59;73.83
70154;DHT22;57519;51.494;-2.626;2023-03-13T10:08:35;13.81;73.67
70154;DHT22;57519;51.494;-2.626;2023-03-13T10:11:27;13.81;74.36
70154;DHT22;57519;51.494;-2.626;2023-03-13T10:14:10;13.83;73.89
70154;DHT22;57519;51.494;-2.626;2023-03-13T10:16:47;13.85;72.20
70154;DHT22;57519;51.494;-2.626;2023-03-13T10:19:17;13.85;71.42
70154;DHT22;57519;51.494;-2.626;2023-03-13T10:21:46;13.83;72.52
70154;DHT22;57519;51.494;-2.626;2023-03-13T10:26:56;13.93;70.76
70154;DHT22;57519;51.494;-2.626;2023-03-13T10:29:26;13.83;70.38
70154;DHT22;57519;51.494;-2.626;2023-03-13T10:32:03;13.92;71.11
70154;DHT22;57519;51.494;-2.626;2023-03-13T10:39:53;14.16;70.84
70154;DHT22;57519;51.494;-2.626;2023-03-13T10:44:55;13.93;71.00
70154;DHT22;57519;51.494;-2.626;2023-03-13T10:47:20;13.82;71.15
70154;DHT22;57519;51.494;-2.626;2023-03-13T10:49:48;13.93;71.41
70154;DHT22;57519;51.494;-2.626;2023-03-13T10:52:42;14.10;70.27
70154;DHT22;57519;51.494;-2.626;2023-03-13T10:55:13;14.14;70.43
70154;DHT22;57519;51.494;-2.626;2023-03-13T10:57:55;14.08;70.26
70154;DHT22;57519;51.494;-2.626;2023-03-13T11:00:37;14.08;70.47
70154;DHT22;57519;51.494;-2.626;2023-03-13T11:03:16;14.02;70.22
70154;DHT22;57519;51.494;-2.626;2023-03-13T11:05:43;14.06;70.00
70154;DHT22;57519;51.494;-2.626;2023-03-13T11:08:19;14.08;70.57
70154;DHT22;57519;51.494;-2.626;2023-03-13T11:10:57;14.08;70.22
70154;DHT22;57519;51.494;-2.626;2023-03-13T11:13:28;14.14;70.70
70154;DHT22;57519;51.494;-2.626;2023-03-13T11:15:57;14.17;70.83
70154;DHT22;57519;51.494;-2.626;2023-03-13T11:18:31;14.05;70.55
70154;DHT22;57519;51.494;-2.626;2023-03-13T11:21:02;14.14;70.78
70154;DHT22;57519;51.494;-2.626;2023-03-13T11:23:40;14.20;69.96
70154;DHT22;57519;51.494;-2.626;2023-03-13T11:26:25;14.13;70.85
70154;DHT22;57519;51.494;-2.626;2023-03-13T11:29:00;14.17;69.89
70154;DHT22;57519;51.494;-2.626;2023-03-13T11:31:38;14.23;69.92
70154;DHT22;57519;51.494;-2.626;2023-03-13T11:47:32;14.70;68.47
70154;DHT22;57519;51.494;-2.626;2023-03-13T11:50:24;14.78;68.77
70154;DHT22;57519;51.494;-2.626;2023-03-13T11:58:32;14.48;69.53
70154;DHT22;57519;51.494;-2.626;2023-03-13T12:01:16;14.87;70.19
70154;DHT22;57519;51.494;-2.626;2023-03-13T12:03:55;15.26;67.92
70154;DHT22;57519;51.494;-2.626;2023-03-13T12:06:44;15.23;66.96
70154;DHT22;57519;51.494;-2.626;2023-03-13T12:09:15;15.33;67.35
70154;DHT22;57519;51.494;-2.626;2023-03-13T12:12:03;15.37;66.98
70154;DHT22;57519;51.494;-2.626;2023-03-13T12:14:44;15.09;65.06
70154;DHT22;57519;51.494;-2.626;2023-03-13T12:17:15;15.02;65.43
70154;DHT22;57519;51.494;-2.626;2023-03-13T12:19:50;15.06;66.09
70154;DHT22;57519;51.494;-2.626;2023-03-13T12:22:40;14.96;66.31
70154;DHT22;57519;51.494;-2.626;2023-03-13T12:25:25;14.74;64.73
70154;DHT22;57519;51.494;-2.626;2023-03-13T12:30:36;14.63;66.29
70154;DHT22;57519;51.494;-2.626;2023-03-13T12:35:39;14.71;66.28
70154;DHT22;57519;51.494;-2.626;2023-03-13T12:38:25;14.63;66.09
70154;DHT22;57519;51.494;-2.626;2023-03-13T12:43:42;14.93;66.67
70154;DHT22;57519;51.494;-2.626;2023-03-13T12:46:36;14.65;66.78
70154;DHT22;57519;51.494;-2.626;2023-03-13T12:49:38;14.59;67.85
70154;DHT22;57519;51.494;-2.626;2023-03-13T13:00:00;14.74;68.67
70154;DHT22;57519;51.494;-2.626;2023-03-13T13:02:30;14.71;69.13
70154;DHT22;57519;51.494;-2.626;2023-03-13T13:04:57;14.65;68.89
70154;DHT22;57519;51.494;-2.626;2023-03-13T13:07:36;14.40;70.50
70154;DHT22;57519;51.494;-2.626;2023-03-13T13:12:34;14.02;74.11
70154;DHT22;57519;51.494;-2.626;2023-03-13T13:15:10;13.53;76.13
70154;DHT22;57519;51.494;-2.626;2023-03-13T13:17:46;13.27;77.72
70154;DHT22;57519;51.494;-2.626;2023-03-13T13:22:52;12.97;79.77
70154;DHT22;57519;51.494;-2.626;2023-03-13T13:25:34;12.78;80.45
70154;DHT22;57519;51.494;-2.626;2023-03-13T13:30:50;12.73;81.11
70154;DHT22;57519;51.494;-2.626;2023-03-13T13:38:35;12.83;81.49
70154;DHT22;57519;51.494;-2.626;2023-03-13T13:46:26;12.99;80.30
70154;DHT22;57519;51.494;-2.626;2023-03-13T13:51:34;12.80;81.23
70154;DHT22;57519;51.494;-2.626;2023-03-13T13:54:01;12.76;81.54
70154;DHT22;57519;51.494;-2.626;2023-03-13T14:01:30;12.31;83.22
70154;DHT22;57519;51.494;-2.626;2023-03-13T14:04:15;12.11;84.26
70154;DHT22;57519;51.494;-2.626;2023-03-13T14:06:47;11.94;85.27
70154;DHT22;57519;51.494;-2.626;2023-03-13T14:09:32;11.77;86.24
70154;DHT22;57519;51.494;-2.626;2023-03-13T14:11:59;11.77;86.61
70154;DHT22;57519;51.494;-2.626;2023-03-13T14:14:25;11.87;86.07
70154;DHT22;57519;51.494;-2.626;2023-03-13T14:16:53;12.10;86.63
70154;DHT22;57519;51.494;-2.626;2023-03-13T14:22:09;12.42;86.27
70154;DHT22;57519;51.494;-2.626;2023-03-13T14:24:36;12.27;86.54
70154;DHT22;57519;51.494;-2.626;2023-03-13T14:27:13;12.46;86.64
70154;DHT22;57519;51.494;-2.626;2023-03-13T14:29:39;12.66;87.08
70154;DHT22;57519;51.494;-2.626;2023-03-13T14:32:05;12.86;86.14
70154;DHT22;57519;51.494;-2.626;2023-03-13T14:34:31;12.96;86.67
70154;DHT22;57519;51.494;-2.626;2023-03-13T14:36:58;13.11;86.02
70154;DHT22;57519;51.494;-2.626;2023-03-13T14:39:37;13.00;84.84
70154;DHT22;57519;51.494;-2.626;2023-03-13T14:42:10;13.14;84.60
70154;DHT22;57519;51.494;-2.626;2023-03-13T14:44:37;13.24;82.97
70154;DHT22;57519;51.494;-2.626;2023-03-13T14:47:22;13.31;81.93
70154;DHT22;57519;51.494;-2.626;2023-03-13T14:50:04;13.62;82.23
70154;DHT22;57519;51.494;-2.626;2023-03-13T14:52:33;13.79;79.47
70154;DHT22;57519;51.494;-2.626;2023-03-13T14:55:03;13.85;78.50
70154;DHT22;57519;51.494;-2.626;2023-03-13T14:57:30;13.83;78.29
70154;DHT22;57519;51.494;-2.626;2023-03-13T15:05:43;13.54;77.24
70154;DHT22;57519;51.494;-2.626;2023-03-13T15:08:16;13.51;77.41
70154;DHT22;57519;51.494;-2.626;2023-03-13T15:10:42;13.46;78.76
70154;DHT22;57519;51.494;-2.626;2023-03-13T15:13:35;13.75;77.84
70154;DHT22;57519;51.494;-2.626;2023-03-13T15:16:04;13.81;76.92
70154;DHT22;57519;51.494;-2.626;2023-03-13T15:18:37;13.85;76.25
70154;DHT22;57519;51.494;-2.626;2023-03-13T15:23:37;13.90;77.21
70154;DHT22;57519;51.494;-2.626;2023-03-13T15:26:02;13.96;76.86
70154;DHT22;57519;51.494;-2.626;2023-03-13T15:28:30;13.92;77.23
70154;DHT22;57519;51.494;-2.626;2023-03-13T15:30:55;13.96;75.81
70154;DHT22;57519;51.494;-2.626;2023-03-13T15:33:22;13.95;75.69
70154;DHT22;57519;51.494;-2.626;2023-03-13T15:35:50;14.01;77.34
70154;DHT22;57519;51.494;-2.626;2023-03-13T15:38:18;13.76;78.23
70154;DHT22;57519;51.494;-2.626;2023-03-13T15:40:44;13.74;78.72
70154;DHT22;57519;51.494;-2.626;2023-03-13T15:43:10;13.53;79.25
70154;DHT22;57519;51.494;-2.626;2023-03-13T15:45:37;13.37;80.15
70154;DHT22;57519;51.494;-2.626;2023-03-13T15:48:23;13.18;79.79
70154;DHT22;57519;51.494;-2.626;2023-03-13T15:53:19;13.20;80.13
70154;DHT22;57519;51.494;-2.626;2023-03-13T15:55:52;13.06;80.04
70154;DHT22;57519;51.494;-2.626;2023-03-13T15:58:18;13.00;81.27
70154;DHT22;57519;51.494;-2.626;2023-03-13T16:00:44;12.82;80.67
70154;DHT22;57519;51.494;-2.626;2023-03-13T16:03:24;12.83;81.47
70154;DHT22;57519;51.494;-2.626;2023-03-13T16:05:51;12.92;81.52
70154;DHT22;57519;51.494;-2.626;2023-03-13T16:08:22;12.92;81.82
70154;DHT22;57519;51.494;-2.626;2023-03-13T16:10:49;12.68;82.11
70154;DHT22;57519;51.494;-2.626;2023-03-13T16:13:15;12.53;83.02
70154;DHT22;57519;51.494;-2.626;2023-03-13T16:15:41;12.44;83.66
70154;DHT22;57519;51.494;-2.626;2023-03-13T16:18:06;12.38;84.51
70154;DHT22;57519;51.494;-2.626;2023-03-13T16:20:34;12.27;85.43
70154;DHT22;57519;51.494;-2.626;2023-03-13T16:22:59;12.23;85.24
70154;DHT22;57519;51.494;-2.626;2023-03-13T16:25:29;12.23;85.49
70154;DHT22;57519;51.494;-2.626;2023-03-13T16:27:56;12.17;85.56
70154;DHT22;57519;51.494;-2.626;2023-03-13T16:30:24;12.01;85.86
70154;DHT22;57519;51.494;-2.626;2023-03-13T16:32:50;12.03;86.10
70154;DHT22;57519;51.494;-2.626;2023-03-13T16:35:16;11.98;86.68
70154;DHT22;57519;51.494;-2.626;2023-03-13T16:37:42;11.89;86.90
70154;DHT22;57519;51.494;-2.626;2023-03-13T16:40:16;11.61;87.41
70154;DHT22;57519;51.494;-2.626;2023-03-13T16:42:42;11.25;88.21
70154;DHT22;57519;51.494;-2.626;2023-03-13T16:45:08;10.89;89.30
70154;DHT22;57519;51.494;-2.626;2023-03-13T16:47:34;10.87;90.70
70154;DHT22;57519;51.494;-2.626;2023-03-13T16:50:00;10.76;91.16
70154;DHT22;57519;51.494;-2.626;2023-03-13T16:52:26;10.66;91.57
70154;DHT22;57519;51.494;-2.626;2023-03-13T16:54:51;10.57;92.18
70154;DHT22;57519;51.494;-2.626;2023-03-13T16:57:22;10.52;92.54
70154;DHT22;57519;51.494;-2.626;2023-03-13T16:59:49;10.52;92.81
70154;DHT22;57519;51.494;-2.626;2023-03-13T17:02:17;10.57;93.32
70154;DHT22;57519;51.494;-2.626;2023-03-13T17:04:43;10.63;93.50
70154;DHT22;57519;51.494;-2.626;2023-03-13T17:07:24;10.79;93.42
70154;DHT22;57519;51.494;-2.626;2023-03-13T17:09:51;10.87;93.10
70154;DHT22;57519;51.494;-2.626;2023-03-13T17:12:17;11.00;92.87
70154;DHT22;57519;51.494;-2.626;2023-03-13T17:14:43;10.90;92.04
70154;DHT22;57519;51.494;-2.626;2023-03-13T17:17:11;10.87;92.11
70154;DHT22;57519;51.494;-2.626;2023-03-13T17:19:37;10.80;92.37
70154;DHT22;57519;51.494;-2.626;2023-03-13T17:22:02;10.81;92.35
70154;DHT22;57519;51.494;-2.626;2023-03-13T17:24:28;10.89;92.24
70154;DHT22;57519;51.494;-2.626;2023-03-13T17:26:53;10.80;92.01
70154;DHT22;57519;51.494;-2.626;2023-03-13T17:29:19;10.73;91.96